GB-0217 weather

Clutton Hill Airstrip
England, United Kingdom

Public forecast

Using degrees Celsius for public forecast. Weather courtesy of forecast.io.

Closest aviation weather report (METAR) to Clutton Hill Airstrip

Closest report is Bristol Airport, 7.8 nm (14.4 km) WNW. Retrieved 2019/12/13 15:20 UTC (37 minutes ago):

EGGD 131520Z AUTO 27017KT 9999 FEW029 06/02 Q0985

Closest aviation forecast (TAF) to Clutton Hill Airstrip

Closest forecast is Bristol Airport, 7.8 nm (14.4 km) WNW. Retrieved 2019/12/13 12:00 UTC (4 hours ago):

TAF EGGD 131103Z 1312/1412 27018G28KT 9999 SCT025 TEMPO 1312/1318 27025G38KT BECMG 1317/1320 26012KT PROB30 TEMPO 1322/1403 7000 SHRA BKN014 BECMG 1400/1403 27018G28KT TEMPO 1401/1412 27025G38KT TEMPO 1406/1411 7000 SHRA BKN008